Alts de Utuado, Puerto Rico
Current Conditions -  °F | °C
As of 7:30 AM on Thursday 27 Nov 2014 (Local Time) from TJBQ Reporting Station
Scattered Clouds Scattered Clouds  
Wind Chill: 73°   Ceiling: Unl
Heat Index: 73°   Visibility: 10mi
Dew Point: 68°   Wind: 7mph
Humidity: 83%   Direction: 110°ESE
Pressure: 30.01"   Gusts: NA
Location:  18.2676°N, 66.7005°W
Report Text: TJBQ 271130Z 11006KT 10SM SCT050 23/20 A3001 RMK RWY 08 ATIS Y
Loading
Personal Weather Stations






























Interactive Weather Map New forecast layout! Learn more

10-Day Weather Forecast

Advertisements
Track Severe Weather on mobile